sensor_id;sensor_type;location;lat;lon;timestamp;P1;durP1;ratioP1;P2;durP2;ratioP2
18228;SDS011;9239;50.932;3.142;2022-12-07T00:00:54;7.80;;;6.10;;
18228;SDS011;9239;50.932;3.142;2022-12-07T00:03:21;8.83;;;6.80;;
18228;SDS011;9239;50.932;3.142;2022-12-07T00:05:48;7.93;;;6.00;;
18228;SDS011;9239;50.932;3.142;2022-12-07T00:08:16;6.90;;;5.50;;
18228;SDS011;9239;50.932;3.142;2022-12-07T00:10:43;6.17;;;5.20;;
18228;SDS011;9239;50.932;3.142;2022-12-07T00:13:10;6.17;;;5.57;;
18228;SDS011;9239;50.932;3.142;2022-12-07T00:15:37;10.43;;;5.03;;
18228;SDS011;9239;50.932;3.142;2022-12-07T00:18:03;8.30;;;5.70;;
18228;SDS011;9239;50.932;3.142;2022-12-07T00:20:30;6.30;;;5.03;;
18228;SDS011;9239;50.932;3.142;2022-12-07T00:22:58;8.07;;;5.10;;
18228;SDS011;9239;50.932;3.142;2022-12-07T00:25:26;6.87;;;5.40;;
18228;SDS011;9239;50.932;3.142;2022-12-07T00:27:53;7.33;;;5.43;;
18228;SDS011;9239;50.932;3.142;2022-12-07T00:30:21;5.90;;;4.80;;
18228;SDS011;9239;50.932;3.142;2022-12-07T00:32:48;7.23;;;5.37;;
18228;SDS011;9239;50.932;3.142;2022-12-07T00:35:16;7.27;;;5.47;;
18228;SDS011;9239;50.932;3.142;2022-12-07T00:37:42;6.63;;;4.80;;
18228;SDS011;9239;50.932;3.142;2022-12-07T00:40:10;6.00;;;4.77;;
18228;SDS011;9239;50.932;3.142;2022-12-07T00:42:38;5.50;;;4.97;;
18228;SDS011;9239;50.932;3.142;2022-12-07T00:45:06;7.27;;;4.83;;
18228;SDS011;9239;50.932;3.142;2022-12-07T00:47:33;8.10;;;4.87;;
18228;SDS011;9239;50.932;3.142;2022-12-07T00:50:00;5.70;;;4.60;;
18228;SDS011;9239;50.932;3.142;2022-12-07T00:52:27;6.27;;;4.90;;
18228;SDS011;9239;50.932;3.142;2022-12-07T00:54:54;9.83;;;5.70;;
18228;SDS011;9239;50.932;3.142;2022-12-07T00:57:21;8.47;;;5.53;;
18228;SDS011;9239;50.932;3.142;2022-12-07T00:59:49;9.83;;;5.53;;
18228;SDS011;9239;50.932;3.142;2022-12-07T01:02:20;7.87;;;5.30;;
18228;SDS011;9239;50.932;3.142;2022-12-07T01:04:47;5.93;;;4.57;;
18228;SDS011;9239;50.932;3.142;2022-12-07T01:07:14;14.13;;;5.40;;
18228;SDS011;9239;50.932;3.142;2022-12-07T01:09:41;8.63;;;5.53;;
18228;SDS011;9239;50.932;3.142;2022-12-07T01:12:08;7.97;;;5.17;;
18228;SDS011;9239;50.932;3.142;2022-12-07T01:14:35;6.87;;;4.90;;
18228;SDS011;9239;50.932;3.142;2022-12-07T01:17:03;7.77;;;5.57;;
18228;SDS011;9239;50.932;3.142;2022-12-07T01:19:30;8.80;;;6.47;;
18228;SDS011;9239;50.932;3.142;2022-12-07T01:21:57;9.47;;;6.47;;
18228;SDS011;9239;50.932;3.142;2022-12-07T01:24:23;9.97;;;6.27;;
18228;SDS011;9239;50.932;3.142;2022-12-07T01:26:50;7.83;;;6.07;;
18228;SDS011;9239;50.932;3.142;2022-12-07T01:29:17;12.23;;;7.37;;
18228;SDS011;9239;50.932;3.142;2022-12-07T01:31:44;9.47;;;7.13;;
18228;SDS011;9239;50.932;3.142;2022-12-07T01:34:15;10.67;;;6.77;;
18228;SDS011;9239;50.932;3.142;2022-12-07T01:36:42;11.03;;;7.40;;
18228;SDS011;9239;50.932;3.142;2022-12-07T01:39:09;9.97;;;7.30;;
18228;SDS011;9239;50.932;3.142;2022-12-07T01:41:37;9.57;;;6.90;;
18228;SDS011;9239;50.932;3.142;2022-12-07T01:44:18;13.37;;;7.80;;
18228;SDS011;9239;50.932;3.142;2022-12-07T01:46:47;10.33;;;6.50;;
18228;SDS011;9239;50.932;3.142;2022-12-07T01:49:20;10.80;;;6.53;;
18228;SDS011;9239;50.932;3.142;2022-12-07T01:51:51;10.37;;;6.63;;
18228;SDS011;9239;50.932;3.142;2022-12-07T01:54:23;9.17;;;6.10;;
18228;SDS011;9239;50.932;3.142;2022-12-07T01:56:52;10.17;;;6.60;;
18228;SDS011;9239;50.932;3.142;2022-12-07T01:59:21;12.90;;;6.60;;
18228;SDS011;9239;50.932;3.142;2022-12-07T02:01:50;10.17;;;6.57;;
18228;SDS011;9239;50.932;3.142;2022-12-07T02:04:19;11.33;;;6.10;;
18228;SDS011;9239;50.932;3.142;2022-12-07T02:06:48;8.03;;;5.90;;
18228;SDS011;9239;50.932;3.142;2022-12-07T02:09:15;8.67;;;5.70;;
18228;SDS011;9239;50.932;3.142;2022-12-07T02:11:42;7.57;;;5.50;;
18228;SDS011;9239;50.932;3.142;2022-12-07T02:14:10;10.10;;;6.00;;
18228;SDS011;9239;50.932;3.142;2022-12-07T02:16:38;9.70;;;6.07;;
18228;SDS011;9239;50.932;3.142;2022-12-07T02:19:23;8.50;;;5.30;;
18228;SDS011;9239;50.932;3.142;2022-12-07T02:22:18;9.20;;;6.20;;
18228;SDS011;9239;50.932;3.142;2022-12-07T02:24:58;7.53;;;5.93;;
18228;SDS011;9239;50.932;3.142;2022-12-07T02:27:36;10.23;;;6.33;;
18228;SDS011;9239;50.932;3.142;2022-12-07T02:30:12;11.00;;;6.20;;
18228;SDS011;9239;50.932;3.142;2022-12-07T02:32:43;8.47;;;5.40;;
18228;SDS011;9239;50.932;3.142;2022-12-07T02:35:20;8.10;;;6.00;;
18228;SDS011;9239;50.932;3.142;2022-12-07T02:37:56;9.57;;;5.73;;
18228;SDS011;9239;50.932;3.142;2022-12-07T02:40:29;9.83;;;6.30;;
18228;SDS011;9239;50.932;3.142;2022-12-07T02:43:01;9.90;;;5.50;;
18228;SDS011;9239;50.932;3.142;2022-12-07T02:45:34;8.47;;;5.57;;
18228;SDS011;9239;50.932;3.142;2022-12-07T02:48:03;14.40;;;6.60;;
18228;SDS011;9239;50.932;3.142;2022-12-07T02:50:32;8.70;;;5.47;;
18228;SDS011;9239;50.932;3.142;2022-12-07T02:52:59;8.43;;;5.30;;
18228;SDS011;9239;50.932;3.142;2022-12-07T02:55:28;12.23;;;5.70;;
18228;SDS011;9239;50.932;3.142;2022-12-07T02:58:03;6.20;;;5.30;;
18228;SDS011;9239;50.932;3.142;2022-12-07T03:00:40;9.13;;;5.10;;
18228;SDS011;9239;50.932;3.142;2022-12-07T03:03:15;10.47;;;5.57;;
18228;SDS011;9239;50.932;3.142;2022-12-07T03:05:49;10.60;;;5.77;;
18228;SDS011;9239;50.932;3.142;2022-12-07T03:08:27;9.03;;;5.40;;
18228;SDS011;9239;50.932;3.142;2022-12-07T03:11:00;6.43;;;5.10;;
18228;SDS011;9239;50.932;3.142;2022-12-07T03:13:30;8.77;;;4.97;;
18228;SDS011;9239;50.932;3.142;2022-12-07T03:16:05;9.17;;;5.10;;
18228;SDS011;9239;50.932;3.142;2022-12-07T03:18:37;7.37;;;5.10;;
18228;SDS011;9239;50.932;3.142;2022-12-07T03:21:09;9.27;;;4.53;;
18228;SDS011;9239;50.932;3.142;2022-12-07T03:23:40;8.47;;;4.97;;
18228;SDS011;9239;50.932;3.142;2022-12-07T03:26:10;8.70;;;5.00;;
18228;SDS011;9239;50.932;3.142;2022-12-07T03:28:40;7.67;;;4.47;;
18228;SDS011;9239;50.932;3.142;2022-12-07T03:31:13;7.20;;;4.57;;
18228;SDS011;9239;50.932;3.142;2022-12-07T03:33:47;8.70;;;4.57;;
18228;SDS011;9239;50.932;3.142;2022-12-07T03:36:20;6.27;;;4.40;;
18228;SDS011;9239;50.932;3.142;2022-12-07T03:38:54;7.50;;;4.87;;
18228;SDS011;9239;50.932;3.142;2022-12-07T03:41:28;8.83;;;5.00;;
18228;SDS011;9239;50.932;3.142;2022-12-07T03:43:57;10.20;;;4.90;;
18228;SDS011;9239;50.932;3.142;2022-12-07T03:46:29;6.37;;;4.53;;
18228;SDS011;9239;50.932;3.142;2022-12-07T03:49:04;6.20;;;3.80;;
18228;SDS011;9239;50.932;3.142;2022-12-07T03:51:38;8.20;;;4.80;;
18228;SDS011;9239;50.932;3.142;2022-12-07T03:54:10;6.57;;;4.77;;
18228;SDS011;9239;50.932;3.142;2022-12-07T03:56:43;7.10;;;4.57;;
18228;SDS011;9239;50.932;3.142;2022-12-07T03:59:11;7.37;;;4.00;;
18228;SDS011;9239;50.932;3.142;2022-12-07T04:01:42;6.93;;;4.23;;
18228;SDS011;9239;50.932;3.142;2022-12-07T04:04:09;9.77;;;4.13;;
18228;SDS011;9239;50.932;3.142;2022-12-07T04:06:36;8.37;;;4.77;;
18228;SDS011;9239;50.932;3.142;2022-12-07T04:09:03;6.97;;;5.37;;
18228;SDS011;9239;50.932;3.142;2022-12-07T04:11:30;8.00;;;4.40;;
18228;SDS011;9239;50.932;3.142;2022-12-07T04:13:57;9.03;;;4.67;;
18228;SDS011;9239;50.932;3.142;2022-12-07T04:16:43;6.50;;;4.37;;
18228;SDS011;9239;50.932;3.142;2022-12-07T04:19:10;4.83;;;3.93;;
18228;SDS011;9239;50.932;3.142;2022-12-07T04:21:37;6.90;;;4.27;;
18228;SDS011;9239;50.932;3.142;2022-12-07T04:24:04;6.20;;;4.30;;
18228;SDS011;9239;50.932;3.142;2022-12-07T04:26:31;7.17;;;4.63;;
18228;SDS011;9239;50.932;3.142;2022-12-07T04:28:58;6.87;;;5.27;;
18228;SDS011;9239;50.932;3.142;2022-12-07T04:31:25;8.40;;;4.57;;
18228;SDS011;9239;50.932;3.142;2022-12-07T04:33:53;5.90;;;4.20;;
18228;SDS011;9239;50.932;3.142;2022-12-07T04:36:20;6.40;;;4.67;;
18228;SDS011;9239;50.932;3.142;2022-12-07T04:38:47;7.50;;;5.13;;
18228;SDS011;9239;50.932;3.142;2022-12-07T04:41:14;9.97;;;5.10;;
18228;SDS011;9239;50.932;3.142;2022-12-07T04:43:41;8.43;;;4.63;;
18228;SDS011;9239;50.932;3.142;2022-12-07T04:46:08;6.87;;;5.07;;
18228;SDS011;9239;50.932;3.142;2022-12-07T04:48:35;10.00;;;5.37;;
18228;SDS011;9239;50.932;3.142;2022-12-07T04:51:03;8.67;;;5.30;;
18228;SDS011;9239;50.932;3.142;2022-12-07T04:53:32;7.27;;;5.67;;
18228;SDS011;9239;50.932;3.142;2022-12-07T04:55:59;5.33;;;4.50;;
18228;SDS011;9239;50.932;3.142;2022-12-07T04:58:26;11.37;;;5.73;;
18228;SDS011;9239;50.932;3.142;2022-12-07T05:00:53;8.67;;;4.47;;
18228;SDS011;9239;50.932;3.142;2022-12-07T05:03:20;7.00;;;4.87;;
18228;SDS011;9239;50.932;3.142;2022-12-07T05:05:48;9.43;;;4.20;;
18228;SDS011;9239;50.932;3.142;2022-12-07T05:08:16;4.73;;;3.87;;
18228;SDS011;9239;50.932;3.142;2022-12-07T05:10:43;7.20;;;4.33;;
18228;SDS011;9239;50.932;3.142;2022-12-07T05:13:09;6.10;;;3.47;;
18228;SDS011;9239;50.932;3.142;2022-12-07T05:15:36;8.23;;;4.50;;
18228;SDS011;9239;50.932;3.142;2022-12-07T05:18:03;6.10;;;3.90;;
18228;SDS011;9239;50.932;3.142;2022-12-07T05:20:30;9.13;;;4.27;;
18228;SDS011;9239;50.932;3.142;2022-12-07T05:22:57;5.23;;;4.17;;
18228;SDS011;9239;50.932;3.142;2022-12-07T05:25:26;9.63;;;4.10;;
18228;SDS011;9239;50.932;3.142;2022-12-07T05:27:54;5.90;;;4.67;;
18228;SDS011;9239;50.932;3.142;2022-12-07T05:30:21;7.13;;;5.20;;
18228;SDS011;9239;50.932;3.142;2022-12-07T05:32:48;7.57;;;5.40;;
18228;SDS011;9239;50.932;3.142;2022-12-07T05:35:15;7.37;;;5.03;;
18228;SDS011;9239;50.932;3.142;2022-12-07T05:37:43;11.43;;;5.53;;
18228;SDS011;9239;50.932;3.142;2022-12-07T05:40:10;7.00;;;5.17;;
18228;SDS011;9239;50.932;3.142;2022-12-07T05:42:40;7.23;;;5.10;;
18228;SDS011;9239;50.932;3.142;2022-12-07T05:45:07;8.57;;;4.47;;
18228;SDS011;9239;50.932;3.142;2022-12-07T05:47:35;8.20;;;4.60;;
18228;SDS011;9239;50.932;3.142;2022-12-07T05:50:04;10.23;;;4.63;;
18228;SDS011;9239;50.932;3.142;2022-12-07T05:52:32;7.93;;;4.57;;
18228;SDS011;9239;50.932;3.142;2022-12-07T05:54:59;14.90;;;9.33;;
18228;SDS011;9239;50.932;3.142;2022-12-07T05:57:26;13.20;;;7.27;;
18228;SDS011;9239;50.932;3.142;2022-12-07T05:59:54;14.17;;;5.87;;
18228;SDS011;9239;50.932;3.142;2022-12-07T06:02:20;11.60;;;5.80;;
18228;SDS011;9239;50.932;3.142;2022-12-07T06:04:47;9.37;;;4.93;;
18228;SDS011;9239;50.932;3.142;2022-12-07T06:07:14;9.53;;;7.37;;
18228;SDS011;9239;50.932;3.142;2022-12-07T06:09:42;12.77;;;9.90;;
18228;SDS011;9239;50.932;3.142;2022-12-07T06:12:09;15.13;;;13.40;;
18228;SDS011;9239;50.932;3.142;2022-12-07T06:14:56;15.47;;;13.10;;
18228;SDS011;9239;50.932;3.142;2022-12-07T06:17:23;12.77;;;11.00;;
18228;SDS011;9239;50.932;3.142;2022-12-07T06:19:50;10.37;;;9.20;;
18228;SDS011;9239;50.932;3.142;2022-12-07T06:22:17;13.80;;;9.70;;
18228;SDS011;9239;50.932;3.142;2022-12-07T06:24:44;13.70;;;6.77;;
18228;SDS011;9239;50.932;3.142;2022-12-07T06:27:11;12.07;;;9.07;;
18228;SDS011;9239;50.932;3.142;2022-12-07T06:29:38;21.00;;;15.10;;
18228;SDS011;9239;50.932;3.142;2022-12-07T06:32:06;8.53;;;7.60;;
18228;SDS011;9239;50.932;3.142;2022-12-07T06:34:34;10.23;;;7.10;;
18228;SDS011;9239;50.932;3.142;2022-12-07T06:37:01;9.73;;;6.33;;
18228;SDS011;9239;50.932;3.142;2022-12-07T06:39:28;8.57;;;6.97;;
18228;SDS011;9239;50.932;3.142;2022-12-07T06:41:55;9.87;;;6.90;;
18228;SDS011;9239;50.932;3.142;2022-12-07T06:44:23;6.43;;;5.47;;
18228;SDS011;9239;50.932;3.142;2022-12-07T06:46:50;9.73;;;5.47;;
18228;SDS011;9239;50.932;3.142;2022-12-07T06:49:19;8.37;;;5.13;;
18228;SDS011;9239;50.932;3.142;2022-12-07T06:51:46;7.57;;;5.37;;
18228;SDS011;9239;50.932;3.142;2022-12-07T06:54:13;7.23;;;5.07;;
18228;SDS011;9239;50.932;3.142;2022-12-07T06:56:41;8.13;;;5.63;;
18228;SDS011;9239;50.932;3.142;2022-12-07T06:59:08;9.43;;;5.93;;
18228;SDS011;9239;50.932;3.142;2022-12-07T07:01:35;16.30;;;12.93;;
18228;SDS011;9239;50.932;3.142;2022-12-07T07:04:02;11.63;;;9.93;;
18228;SDS011;9239;50.932;3.142;2022-12-07T07:06:31;11.00;;;8.63;;
18228;SDS011;9239;50.932;3.142;2022-12-07T07:08:57;13.90;;;8.63;;
18228;SDS011;9239;50.932;3.142;2022-12-07T07:11:25;12.10;;;6.93;;
18228;SDS011;9239;50.932;3.142;2022-12-07T07:13:52;8.10;;;4.87;;
18228;SDS011;9239;50.932;3.142;2022-12-07T07:16:18;8.37;;;5.50;;
18228;SDS011;9239;50.932;3.142;2022-12-07T07:18:45;7.03;;;4.27;;
18228;SDS011;9239;50.932;3.142;2022-12-07T07:21:12;7.97;;;5.10;;
18228;SDS011;9239;50.932;3.142;2022-12-07T07:23:40;7.43;;;5.57;;
18228;SDS011;9239;50.932;3.142;2022-12-07T07:26:07;15.77;;;9.77;;
18228;SDS011;9239;50.932;3.142;2022-12-07T07:28:34;9.27;;;7.53;;
18228;SDS011;9239;50.932;3.142;2022-12-07T07:31:01;6.17;;;5.47;;
18228;SDS011;9239;50.932;3.142;2022-12-07T07:33:28;9.77;;;4.50;;
18228;SDS011;9239;50.932;3.142;2022-12-07T07:35:55;10.40;;;5.47;;
18228;SDS011;9239;50.932;3.142;2022-12-07T07:38:22;10.43;;;8.90;;
18228;SDS011;9239;50.932;3.142;2022-12-07T07:40:50;10.67;;;7.97;;
18228;SDS011;9239;50.932;3.142;2022-12-07T07:43:17;10.03;;;6.53;;
18228;SDS011;9239;50.932;3.142;2022-12-07T07:45:44;10.20;;;5.03;;
18228;SDS011;9239;50.932;3.142;2022-12-07T07:48:11;13.07;;;7.43;;
18228;SDS011;9239;50.932;3.142;2022-12-07T07:50:38;9.87;;;6.20;;
18228;SDS011;9239;50.932;3.142;2022-12-07T07:53:05;9.00;;;4.60;;
18228;SDS011;9239;50.932;3.142;2022-12-07T07:55:31;8.37;;;4.73;;
18228;SDS011;9239;50.932;3.142;2022-12-07T07:58:00;7.03;;;4.70;;
18228;SDS011;9239;50.932;3.142;2022-12-07T08:00:27;7.30;;;4.40;;
18228;SDS011;9239;50.932;3.142;2022-12-07T08:02:54;8.57;;;4.77;;
18228;SDS011;9239;50.932;3.142;2022-12-07T08:05:21;6.60;;;5.20;;
18228;SDS011;9239;50.932;3.142;2022-12-07T08:07:48;7.33;;;5.10;;
18228;SDS011;9239;50.932;3.142;2022-12-07T08:10:14;7.97;;;4.73;;
18228;SDS011;9239;50.932;3.142;2022-12-07T08:12:42;12.43;;;5.43;;
18228;SDS011;9239;50.932;3.142;2022-12-07T08:15:35;6.90;;;4.63;;
18228;SDS011;9239;50.932;3.142;2022-12-07T08:18:03;6.23;;;4.17;;
18228;SDS011;9239;50.932;3.142;2022-12-07T08:20:30;10.10;;;4.27;;
18228;SDS011;9239;50.932;3.142;2022-12-07T08:22:58;8.03;;;3.90;;
18228;SDS011;9239;50.932;3.142;2022-12-07T08:25:25;8.53;;;3.80;;
18228;SDS011;9239;50.932;3.142;2022-12-07T08:27:52;10.83;;;4.30;;
18228;SDS011;9239;50.932;3.142;2022-12-07T08:30:20;6.40;;;3.70;;
18228;SDS011;9239;50.932;3.142;2022-12-07T08:32:48;5.67;;;3.27;;
18228;SDS011;9239;50.932;3.142;2022-12-07T08:35:16;8.60;;;3.83;;
18228;SDS011;9239;50.932;3.142;2022-12-07T08:37:43;17.57;;;5.93;;
18228;SDS011;9239;50.932;3.142;2022-12-07T08:40:11;28.40;;;7.03;;
18228;SDS011;9239;50.932;3.142;2022-12-07T08:42:40;26.57;;;6.57;;
18228;SDS011;9239;50.932;3.142;2022-12-07T08:45:08;24.80;;;6.43;;
18228;SDS011;9239;50.932;3.142;2022-12-07T08:47:38;26.33;;;7.90;;
18228;SDS011;9239;50.932;3.142;2022-12-07T08:50:10;11.90;;;5.00;;
18228;SDS011;9239;50.932;3.142;2022-12-07T08:52:38;6.00;;;3.80;;
18228;SDS011;9239;50.932;3.142;2022-12-07T08:55:07;7.47;;;5.03;;
18228;SDS011;9239;50.932;3.142;2022-12-07T08:57:37;6.03;;;4.93;;
18228;SDS011;9239;50.932;3.142;2022-12-07T09:00:05;5.53;;;3.77;;
18228;SDS011;9239;50.932;3.142;2022-12-07T09:02:33;5.97;;;3.97;;
18228;SDS011;9239;50.932;3.142;2022-12-07T09:05:00;14.37;;;9.70;;
18228;SDS011;9239;50.932;3.142;2022-12-07T09:07:28;7.03;;;5.27;;
18228;SDS011;9239;50.932;3.142;2022-12-07T09:09:58;6.83;;;4.40;;
18228;SDS011;9239;50.932;3.142;2022-12-07T09:12:25;8.50;;;4.67;;
18228;SDS011;9239;50.932;3.142;2022-12-07T09:14:52;10.03;;;5.40;;
18228;SDS011;9239;50.932;3.142;2022-12-07T09:17:18;4.20;;;3.03;;
18228;SDS011;9239;50.932;3.142;2022-12-07T09:19:45;7.70;;;3.97;;
18228;SDS011;9239;50.932;3.142;2022-12-07T09:22:12;5.77;;;5.17;;
18228;SDS011;9239;50.932;3.142;2022-12-07T09:24:40;4.90;;;3.30;;
18228;SDS011;9239;50.932;3.142;2022-12-07T09:27:08;5.83;;;3.73;;
18228;SDS011;9239;50.932;3.142;2022-12-07T09:29:35;4.40;;;4.00;;
18228;SDS011;9239;50.932;3.142;2022-12-07T09:32:03;7.50;;;4.00;;
18228;SDS011;9239;50.932;3.142;2022-12-07T09:34:30;8.70;;;4.10;;
18228;SDS011;9239;50.932;3.142;2022-12-07T09:36:57;6.10;;;3.70;;
18228;SDS011;9239;50.932;3.142;2022-12-07T09:39:27;6.23;;;4.10;;
18228;SDS011;9239;50.932;3.142;2022-12-07T09:41:56;5.27;;;3.63;;
18228;SDS011;9239;50.932;3.142;2022-12-07T09:44:25;4.80;;;3.60;;
18228;SDS011;9239;50.932;3.142;2022-12-07T09:46:53;4.77;;;3.77;;
18228;SDS011;9239;50.932;3.142;2022-12-07T09:49:22;5.43;;;4.67;;
18228;SDS011;9239;50.932;3.142;2022-12-07T09:51:59;7.87;;;7.13;;
18228;SDS011;9239;50.932;3.142;2022-12-07T09:54:28;8.33;;;4.33;;
18228;SDS011;9239;50.932;3.142;2022-12-07T09:56:57;5.20;;;3.07;;
18228;SDS011;9239;50.932;3.142;2022-12-07T09:59:25;8.13;;;2.73;;
18228;SDS011;9239;50.932;3.142;2022-12-07T10:01:52;7.70;;;5.43;;
18228;SDS011;9239;50.932;3.142;2022-12-07T10:04:20;7.57;;;3.50;;
18228;SDS011;9239;50.932;3.142;2022-12-07T10:06:48;5.53;;;2.47;;
18228;SDS011;9239;50.932;3.142;2022-12-07T10:09:16;7.67;;;2.97;;
18228;SDS011;9239;50.932;3.142;2022-12-07T10:12:05;6.07;;;4.03;;
18228;SDS011;9239;50.932;3.142;2022-12-07T10:14:35;4.50;;;3.30;;
18228;SDS011;9239;50.932;3.142;2022-12-07T10:17:12;12.03;;;6.90;;
18228;SDS011;9239;50.932;3.142;2022-12-07T10:20:06;9.93;;;5.90;;
18228;SDS011;9239;50.932;3.142;2022-12-07T10:22:41;8.33;;;4.87;;
18228;SDS011;9239;50.932;3.142;2022-12-07T10:25:22;9.57;;;5.70;;
18228;SDS011;9239;50.932;3.142;2022-12-07T10:27:59;10.07;;;7.80;;
18228;SDS011;9239;50.932;3.142;2022-12-07T10:30:28;9.83;;;4.53;;
18228;SDS011;9239;50.932;3.142;2022-12-07T10:32:57;5.87;;;3.80;;
18228;SDS011;9239;50.932;3.142;2022-12-07T10:35:25;6.40;;;4.70;;
18228;SDS011;9239;50.932;3.142;2022-12-07T10:37:54;5.57;;;2.77;;
18228;SDS011;9239;50.932;3.142;2022-12-07T10:40:27;5.90;;;3.47;;
18228;SDS011;9239;50.932;3.142;2022-12-07T10:43:17;6.23;;;2.40;;
18228;SDS011;9239;50.932;3.142;2022-12-07T10:48:56;5.67;;;2.37;;
18228;SDS011;9239;50.932;3.142;2022-12-07T10:51:32;5.30;;;2.83;;
18228;SDS011;9239;50.932;3.142;2022-12-07T10:54:09;5.23;;;2.30;;
18228;SDS011;9239;50.932;3.142;2022-12-07T10:56:43;6.30;;;2.17;;
18228;SDS011;9239;50.932;3.142;2022-12-07T10:59:27;3.60;;;2.67;;
18228;SDS011;9239;50.932;3.142;2022-12-07T11:02:27;11.83;;;5.53;;
18228;SDS011;9239;50.932;3.142;2022-12-07T11:05:14;6.13;;;3.53;;
18228;SDS011;9239;50.932;3.142;2022-12-07T11:07:47;4.33;;;2.17;;
18228;SDS011;9239;50.932;3.142;2022-12-07T11:10:22;8.13;;;5.30;;
18228;SDS011;9239;50.932;3.142;2022-12-07T11:15:57;15.03;;;5.90;;
18228;SDS011;9239;50.932;3.142;2022-12-07T11:18:32;12.20;;;5.83;;
18228;SDS011;9239;50.932;3.142;2022-12-07T11:21:12;15.03;;;8.23;;
18228;SDS011;9239;50.932;3.142;2022-12-07T11:23:49;3.57;;;3.00;;
18228;SDS011;9239;50.932;3.142;2022-12-07T11:26:24;5.40;;;3.13;;
18228;SDS011;9239;50.932;3.142;2022-12-07T11:29:08;3.37;;;3.03;;
18228;SDS011;9239;50.932;3.142;2022-12-07T11:31:52;9.00;;;2.30;;
18228;SDS011;9239;50.932;3.142;2022-12-07T11:34:31;3.47;;;1.60;;
18228;SDS011;9239;50.932;3.142;2022-12-07T11:37:05;5.67;;;1.83;;
18228;SDS011;9239;50.932;3.142;2022-12-07T11:39:39;2.03;;;1.80;;
18228;SDS011;9239;50.932;3.142;2022-12-07T11:42:12;2.10;;;1.60;;
18228;SDS011;9239;50.932;3.142;2022-12-07T11:44:47;5.67;;;2.23;;
18228;SDS011;9239;50.932;3.142;2022-12-07T11:47:21;3.37;;;1.67;;
18228;SDS011;9239;50.932;3.142;2022-12-07T11:49:54;2.20;;;1.50;;
18228;SDS011;9239;50.932;3.142;2022-12-07T11:52:25;1.87;;;1.30;;
18228;SDS011;9239;50.932;3.142;2022-12-07T11:54:58;4.20;;;1.97;;
18228;SDS011;9239;50.932;3.142;2022-12-07T11:57:28;2.73;;;1.30;;
18228;SDS011;9239;50.932;3.142;2022-12-07T12:00:00;4.30;;;1.70;;
18228;SDS011;9239;50.932;3.142;2022-12-07T12:02:33;7.60;;;1.87;;
18228;SDS011;9239;50.932;3.142;2022-12-07T12:05:12;2.33;;;1.40;;
18228;SDS011;9239;50.932;3.142;2022-12-07T12:07:42;4.13;;;1.83;;
18228;SDS011;9239;50.932;3.142;2022-12-07T12:10:17;5.13;;;2.20;;
18228;SDS011;9239;50.932;3.142;2022-12-07T12:12:52;2.47;;;1.37;;
18228;SDS011;9239;50.932;3.142;2022-12-07T12:15:42;3.17;;;1.57;;
18228;SDS011;9239;50.932;3.142;2022-12-07T12:18:25;2.53;;;1.63;;
18228;SDS011;9239;50.932;3.142;2022-12-07T12:21:03;4.60;;;2.20;;
18228;SDS011;9239;50.932;3.142;2022-12-07T12:23:36;4.80;;;1.70;;
18228;SDS011;9239;50.932;3.142;2022-12-07T12:26:08;1.97;;;1.13;;
18228;SDS011;9239;50.932;3.142;2022-12-07T12:28:48;5.17;;;1.90;;
18228;SDS011;9239;50.932;3.142;2022-12-07T12:31:29;3.90;;;2.27;;
18228;SDS011;9239;50.932;3.142;2022-12-07T12:34:03;4.53;;;1.77;;
18228;SDS011;9239;50.932;3.142;2022-12-07T12:36:50;2.87;;;1.60;;
18228;SDS011;9239;50.932;3.142;2022-12-07T12:39:17;7.00;;;2.70;;
18228;SDS011;9239;50.932;3.142;2022-12-07T12:41:52;7.20;;;2.80;;
18228;SDS011;9239;50.932;3.142;2022-12-07T12:47:42;4.33;;;2.67;;
18228;SDS011;9239;50.932;3.142;2022-12-07T12:50:22;4.10;;;2.40;;
18228;SDS011;9239;50.932;3.142;2022-12-07T12:58:38;6.50;;;3.83;;
18228;SDS011;9239;50.932;3.142;2022-12-07T13:04:16;7.80;;;4.10;;
18228;SDS011;9239;50.932;3.142;2022-12-07T13:07:04;9.50;;;6.10;;
18228;SDS011;9239;50.932;3.142;2022-12-07T13:09:36;10.23;;;5.93;;
18228;SDS011;9239;50.932;3.142;2022-12-07T13:12:12;13.87;;;8.93;;
18228;SDS011;9239;50.932;3.142;2022-12-07T13:14:43;7.80;;;5.60;;
18228;SDS011;9239;50.932;3.142;2022-12-07T13:23:27;7.67;;;5.13;;
18228;SDS011;9239;50.932;3.142;2022-12-07T13:26:00;4.27;;;3.10;;
18228;SDS011;9239;50.932;3.142;2022-12-07T13:28:35;4.67;;;3.03;;
18228;SDS011;9239;50.932;3.142;2022-12-07T13:31:13;6.67;;;4.27;;
18228;SDS011;9239;50.932;3.142;2022-12-07T13:34:02;7.67;;;3.73;;
18228;SDS011;9239;50.932;3.142;2022-12-07T13:36:31;7.47;;;3.50;;
18228;SDS011;9239;50.932;3.142;2022-12-07T13:39:16;6.83;;;2.70;;
18228;SDS011;9239;50.932;3.142;2022-12-07T13:41:48;6.83;;;2.07;;
18228;SDS011;9239;50.932;3.142;2022-12-07T13:44:17;4.03;;;1.73;;
18228;SDS011;9239;50.932;3.142;2022-12-07T13:46:48;2.23;;;1.27;;
18228;SDS011;9239;50.932;3.142;2022-12-07T13:49:22;2.80;;;1.20;;
18228;SDS011;9239;50.932;3.142;2022-12-07T13:51:50;5.13;;;2.03;;
18228;SDS011;9239;50.932;3.142;2022-12-07T13:54:19;3.03;;;1.80;;
18228;SDS011;9239;50.932;3.142;2022-12-07T13:56:47;14.67;;;2.83;;
18228;SDS011;9239;50.932;3.142;2022-12-07T13:59:17;2.03;;;1.30;;
18228;SDS011;9239;50.932;3.142;2022-12-07T14:01:46;1.77;;;1.30;;
18228;SDS011;9239;50.932;3.142;2022-12-07T14:04:17;2.53;;;1.10;;
18228;SDS011;9239;50.932;3.142;2022-12-07T14:07:15;2.70;;;1.27;;
18228;SDS011;9239;50.932;3.142;2022-12-07T14:10:00;2.53;;;1.57;;
18228;SDS011;9239;50.932;3.142;2022-12-07T14:12:29;4.13;;;1.67;;
18228;SDS011;9239;50.932;3.142;2022-12-07T14:14:58;4.23;;;1.87;;
18228;SDS011;9239;50.932;3.142;2022-12-07T14:17:27;5.70;;;3.47;;
18228;SDS011;9239;50.932;3.142;2022-12-07T14:19:54;6.13;;;2.77;;
18228;SDS011;9239;50.932;3.142;2022-12-07T14:22:23;5.60;;;4.23;;
18228;SDS011;9239;50.932;3.142;2022-12-07T14:24:57;5.90;;;4.37;;
18228;SDS011;9239;50.932;3.142;2022-12-07T14:27:56;7.17;;;4.53;;
18228;SDS011;9239;50.932;3.142;2022-12-07T14:30:26;5.97;;;3.33;;
18228;SDS011;9239;50.932;3.142;2022-12-07T14:32:57;5.57;;;3.40;;
18228;SDS011;9239;50.932;3.142;2022-12-07T14:35:25;8.13;;;4.13;;
18228;SDS011;9239;50.932;3.142;2022-12-07T14:37:53;5.30;;;4.43;;
18228;SDS011;9239;50.932;3.142;2022-12-07T14:40:20;6.67;;;3.70;;
18228;SDS011;9239;50.932;3.142;2022-12-07T14:42:50;5.47;;;4.00;;
18228;SDS011;9239;50.932;3.142;2022-12-07T14:45:21;6.07;;;4.70;;
18228;SDS011;9239;50.932;3.142;2022-12-07T14:47:49;6.73;;;4.77;;
18228;SDS011;9239;50.932;3.142;2022-12-07T14:50:17;11.60;;;4.60;;
18228;SDS011;9239;50.932;3.142;2022-12-07T14:52:46;6.17;;;4.23;;
18228;SDS011;9239;50.932;3.142;2022-12-07T14:55:17;9.27;;;4.77;;
18228;SDS011;9239;50.932;3.142;2022-12-07T14:57:48;5.03;;;3.47;;
18228;SDS011;9239;50.932;3.142;2022-12-07T15:00:16;9.60;;;4.07;;
18228;SDS011;9239;50.932;3.142;2022-12-07T15:02:45;6.07;;;2.87;;
18228;SDS011;9239;50.932;3.142;2022-12-07T15:05:13;4.37;;;2.13;;
18228;SDS011;9239;50.932;3.142;2022-12-07T15:07:40;5.13;;;2.83;;
18228;SDS011;9239;50.932;3.142;2022-12-07T15:10:10;2.27;;;1.70;;
18228;SDS011;9239;50.932;3.142;2022-12-07T15:12:42;2.83;;;1.47;;
18228;SDS011;9239;50.932;3.142;2022-12-07T15:15:09;4.67;;;2.30;;
18228;SDS011;9239;50.932;3.142;2022-12-07T15:17:36;2.97;;;2.40;;
18228;SDS011;9239;50.932;3.142;2022-12-07T15:20:05;4.10;;;2.83;;
18228;SDS011;9239;50.932;3.142;2022-12-07T15:22:35;12.03;;;3.20;;
18228;SDS011;9239;50.932;3.142;2022-12-07T15:25:02;7.60;;;6.77;;
18228;SDS011;9239;50.932;3.142;2022-12-07T15:27:31;6.33;;;4.87;;
18228;SDS011;9239;50.932;3.142;2022-12-07T15:29:58;3.87;;;3.47;;
18228;SDS011;9239;50.932;3.142;2022-12-07T15:32:25;5.97;;;3.63;;
18228;SDS011;9239;50.932;3.142;2022-12-07T15:34:51;9.23;;;3.23;;
18228;SDS011;9239;50.932;3.142;2022-12-07T15:37:20;6.70;;;2.90;;
18228;SDS011;9239;50.932;3.142;2022-12-07T15:39:46;4.87;;;2.80;;
18228;SDS011;9239;50.932;3.142;2022-12-07T15:42:13;5.70;;;2.63;;